CheckWX is a tool to help pilots better visualize weather data.  It is not intended as a substitute for an official pre-flight weather briefing.

03:40:40 UTC

KPRC TAF
Ernest A Love Field Airport
Prescott, Arizona, USA
KPRC 282322Z 2900/2924 VRB06KT P6SM BKN150 FM291800 23010KT P6SM FEW150

Feb-29@
00:00 UTC

Feb-29 @ 00:00 UTC

Feb-29@
18:00 UTC

Feb-29 @ 18:00 UTC

KPRC 282322Z 2900/2924 VRB06KT P6SM BKN150
Wind
  • Variable at 6 KTS
Cloud Levels
  • Broken at 15,000' AGL

Feb-29@
18:00 UTC

Feb-29 @ 18:00 UTC

Mar-1@
00:00 UTC

Mar-1 @ 00:00 UTC

FM291800 23010KT P6SM FEW150

From

From Standard forecast or significant change

Wind
  • 230° at 10 KTS
Cloud Levels
  • Few at 15,000' AGL